sensor_id;sensor_type;location;lat;lon;timestamp;pressure;altitude;pressure_sealevel;temperature;humidity
9899;BME280;4988;49.238;6.698;2023-01-30T00:01:01;100027.16;;;-0.50;97.90
9899;BME280;4988;49.238;6.698;2023-01-30T00:03:28;100018.50;;;-0.46;98.30
9899;BME280;4988;49.238;6.698;2023-01-30T00:05:53;100015.00;;;-0.48;98.21
9899;BME280;4988;49.238;6.698;2023-01-30T00:08:19;100008.16;;;-0.37;98.56
9899;BME280;4988;49.238;6.698;2023-01-30T00:10:44;100012.47;;;-0.39;98.45
9899;BME280;4988;49.238;6.698;2023-01-30T00:13:11;100023.94;;;-0.30;98.37
9899;BME280;4988;49.238;6.698;2023-01-30T00:15:36;100020.38;;;-0.36;98.79
9899;BME280;4988;49.238;6.698;2023-01-30T00:18:01;100019.41;;;-0.42;99.58
9899;BME280;4988;49.238;6.698;2023-01-30T00:20:27;100006.34;;;-0.41;99.90
9899;BME280;4988;49.238;6.698;2023-01-30T00:22:52;100022.09;;;-0.38;99.96
9899;BME280;4988;49.238;6.698;2023-01-30T00:25:18;100025.53;;;-0.42;100.00
9899;BME280;4988;49.238;6.698;2023-01-30T00:27:43;100021.16;;;-0.43;100.00
9899;BME280;4988;49.238;6.698;2023-01-30T00:30:09;100025.56;;;-0.39;100.00
9899;BME280;4988;49.238;6.698;2023-01-30T00:32:34;100022.88;;;-0.43;100.00
9899;BME280;4988;49.238;6.698;2023-01-30T00:34:59;100022.84;;;-0.46;100.00
9899;BME280;4988;49.238;6.698;2023-01-30T00:37:25;100018.53;;;-0.43;100.00
9899;BME280;4988;49.238;6.698;2023-01-30T00:39:50;99997.53;;;-0.49;100.00
9899;BME280;4988;49.238;6.698;2023-01-30T00:42:16;99968.72;;;-0.54;100.00
9899;BME280;4988;49.238;6.698;2023-01-30T00:44:59;99958.28;;;-0.52;100.00
9899;BME280;4988;49.238;6.698;2023-01-30T00:47:43;99971.25;;;-0.58;100.00
9899;BME280;4988;49.238;6.698;2023-01-30T00:50:09;99975.59;;;-0.60;100.00
9899;BME280;4988;49.238;6.698;2023-01-30T00:52:34;99972.97;;;-0.60;100.00
9899;BME280;4988;49.238;6.698;2023-01-30T00:55:00;99954.72;;;-0.57;100.00
9899;BME280;4988;49.238;6.698;2023-01-30T00:57:25;99945.06;;;-0.63;100.00
9899;BME280;4988;49.238;6.698;2023-01-30T00:59:50;99979.03;;;-0.66;100.00
9899;BME280;4988;49.238;6.698;2023-01-30T01:02:16;99968.56;;;-0.65;100.00
9899;BME280;4988;49.238;6.698;2023-01-30T01:04:41;99950.47;;;-0.49;100.00
9899;BME280;4988;49.238;6.698;2023-01-30T01:07:10;99938.19;;;-0.56;100.00
9899;BME280;4988;49.238;6.698;2023-01-30T01:09:36;99939.94;;;-0.54;100.00
9899;BME280;4988;49.238;6.698;2023-01-30T01:12:02;99931.19;;;-0.57;100.00
9899;BME280;4988;49.238;6.698;2023-01-30T01:14:27;99921.59;;;-0.58;100.00
9899;BME280;4988;49.238;6.698;2023-01-30T01:16:53;99937.25;;;-0.60;100.00
9899;BME280;4988;49.238;6.698;2023-01-30T01:19:18;99911.97;;;-0.62;100.00
9899;BME280;4988;49.238;6.698;2023-01-30T01:21:43;99932.81;;;-0.69;100.00
9899;BME280;4988;49.238;6.698;2023-01-30T01:24:11;99920.59;;;-0.70;100.00
9899;BME280;4988;49.238;6.698;2023-01-30T01:26:37;99933.66;;;-0.68;100.00
9899;BME280;4988;49.238;6.698;2023-01-30T01:29:03;99927.53;;;-0.72;100.00
9899;BME280;4988;49.238;6.698;2023-01-30T01:31:28;99927.50;;;-0.75;100.00
9899;BME280;4988;49.238;6.698;2023-01-30T01:33:54;99942.34;;;-0.72;100.00
9899;BME280;4988;49.238;6.698;2023-01-30T01:36:19;99936.22;;;-0.73;100.00
9899;BME280;4988;49.238;6.698;2023-01-30T01:38:45;99918.88;;;-0.68;100.00
9899;BME280;4988;49.238;6.698;2023-01-30T01:41:11;99929.28;;;-0.69;100.00
9899;BME280;4988;49.238;6.698;2023-01-30T01:43:58;99928.63;;;-0.54;100.00
9899;BME280;4988;49.238;6.698;2023-01-30T01:46:30;99906.75;;;-0.61;100.00
9899;BME280;4988;49.238;6.698;2023-01-30T01:48:59;99892.75;;;-0.63;100.00
9899;BME280;4988;49.238;6.698;2023-01-30T01:51:41;99885.88;;;-0.56;100.00
9899;BME280;4988;49.238;6.698;2023-01-30T01:54:12;99866.69;;;-0.58;100.00
9899;BME280;4988;49.238;6.698;2023-01-30T01:56:42;99843.09;;;-0.63;100.00
9899;BME280;4988;49.238;6.698;2023-01-30T01:59:20;99857.88;;;-0.67;100.00
9899;BME280;4988;49.238;6.698;2023-01-30T02:01:48;99871.81;;;-0.68;100.00
9899;BME280;4988;49.238;6.698;2023-01-30T02:04:14;99864.84;;;-0.67;100.00
9899;BME280;4988;49.238;6.698;2023-01-30T02:06:59;99872.69;;;-0.67;100.00
9899;BME280;4988;49.238;6.698;2023-01-30T02:09:25;99870.16;;;-0.59;100.00
9899;BME280;4988;49.238;6.698;2023-01-30T02:11:55;99877.97;;;-0.61;100.00
9899;BME280;4988;49.238;6.698;2023-01-30T02:14:23;99870.16;;;-0.59;100.00
9899;BME280;4988;49.238;6.698;2023-01-30T02:16:49;99864.97;;;-0.56;100.00
9899;BME280;4988;49.238;6.698;2023-01-30T02:33:00;99839.75;;;-0.51;100.00
9899;BME280;4988;49.238;6.698;2023-01-30T02:35:41;99842.34;;;-0.50;100.00
9899;BME280;4988;49.238;6.698;2023-01-30T02:46:20;99854.69;;;-0.38;100.00
9899;BME280;4988;49.238;6.698;2023-01-30T02:48:55;99833.78;;;-0.35;100.00
9899;BME280;4988;49.238;6.698;2023-01-30T02:51:25;99829.44;;;-0.36;100.00
9899;BME280;4988;49.238;6.698;2023-01-30T02:53:52;99823.38;;;-0.28;100.00
9899;BME280;4988;49.238;6.698;2023-01-30T02:56:18;99819.03;;;-0.28;100.00
9899;BME280;4988;49.238;6.698;2023-01-30T02:58:48;99822.50;;;-0.27;100.00
9899;BME280;4988;49.238;6.698;2023-01-30T03:07:22;99826.88;;;-0.29;100.00
9899;BME280;4988;49.238;6.698;2023-01-30T03:10:17;99829.44;;;-0.33;100.00
9899;BME280;4988;49.238;6.698;2023-01-30T03:13:01;99826.78;;;-0.37;100.00
9899;BME280;4988;49.238;6.698;2023-01-30T03:15:37;99821.56;;;-0.37;100.00
9899;BME280;4988;49.238;6.698;2023-01-30T03:18:04;99825.06;;;-0.37;100.00
9899;BME280;4988;49.238;6.698;2023-01-30T03:20:30;99823.31;;;-0.39;100.00
9899;BME280;4988;49.238;6.698;2023-01-30T03:23:00;99824.16;;;-0.37;100.00
9899;BME280;4988;49.238;6.698;2023-01-30T03:25:25;99823.31;;;-0.35;100.00
9899;BME280;4988;49.238;6.698;2023-01-30T03:27:52;99827.69;;;-0.34;100.00
9899;BME280;4988;49.238;6.698;2023-01-30T03:30:18;99826.84;;;-0.33;100.00
9899;BME280;4988;49.238;6.698;2023-01-30T03:32:43;99827.72;;;-0.32;100.00
9899;BME280;4988;49.238;6.698;2023-01-30T03:35:09;99823.38;;;-0.28;100.00
9899;BME280;4988;49.238;6.698;2023-01-30T03:37:34;99816.41;;;-0.29;100.00
9899;BME280;4988;49.238;6.698;2023-01-30T03:40:00;99818.13;;;-0.30;100.00
9899;BME280;4988;49.238;6.698;2023-01-30T03:42:26;99825.13;;;-0.30;100.00
9899;BME280;4988;49.238;6.698;2023-01-30T03:44:51;99819.88;;;-0.30;100.00
9899;BME280;4988;49.238;6.698;2023-01-30T03:47:16;99812.91;;;-0.28;100.00
9899;BME280;4988;49.238;6.698;2023-01-30T03:49:42;99820.78;;;-0.27;100.00
9899;BME280;4988;49.238;6.698;2023-01-30T03:52:07;99815.56;;;-0.27;100.00
9899;BME280;4988;49.238;6.698;2023-01-30T03:54:32;99811.19;;;-0.29;100.00
9899;BME280;4988;49.238;6.698;2023-01-30T03:56:58;99799.81;;;-0.30;100.00
9899;BME280;4988;49.238;6.698;2023-01-30T03:59:23;99802.44;;;-0.30;100.00
9899;BME280;4988;49.238;6.698;2023-01-30T04:01:48;99806.88;;;-0.23;100.00
9899;BME280;4988;49.238;6.698;2023-01-30T04:04:14;99820.78;;;-0.27;100.00
9899;BME280;4988;49.238;6.698;2023-01-30T04:06:39;99819.94;;;-0.24;100.00
9899;BME280;4988;49.238;6.698;2023-01-30T04:09:04;99814.66;;;-0.27;100.00
9899;BME280;4988;49.238;6.698;2023-01-30T04:11:30;99817.31;;;-0.26;100.00
9899;BME280;4988;49.238;6.698;2023-01-30T04:13:55;99820.81;;;-0.25;100.00
9899;BME280;4988;49.238;6.698;2023-01-30T04:16:25;99812.97;;;-0.22;100.00
9899;BME280;4988;49.238;6.698;2023-01-30T04:18:51;99807.78;;;-0.19;100.00
9899;BME280;4988;49.238;6.698;2023-01-30T04:21:17;99804.34;;;-0.09;100.00
9899;BME280;4988;49.238;6.698;2023-01-30T04:23:42;99786.94;;;-0.10;100.00
9899;BME280;4988;49.238;6.698;2023-01-30T04:26:08;99792.13;;;-0.13;100.00
9899;BME280;4988;49.238;6.698;2023-01-30T04:28:35;99796.50;;;-0.13;100.00
9899;BME280;4988;49.238;6.698;2023-01-30T04:31:01;99779.91;;;-0.15;100.00
9899;BME280;4988;49.238;6.698;2023-01-30T04:33:27;99779.94;;;-0.08;100.00
9899;BME280;4988;49.238;6.698;2023-01-30T04:35:59;99778.19;;;-0.09;100.00
9899;BME280;4988;49.238;6.698;2023-01-30T04:38:25;99764.19;;;-0.14;100.00
9899;BME280;4988;49.238;6.698;2023-01-30T04:40:52;99756.41;;;-0.06;100.00
9899;BME280;4988;49.238;6.698;2023-01-30T04:43:19;99763.38;;;-0.08;100.00
9899;BME280;4988;49.238;6.698;2023-01-30T04:45:47;99772.13;;;-0.03;100.00
9899;BME280;4988;49.238;6.698;2023-01-30T04:48:13;99772.16;;;0.02;100.00
9899;BME280;4988;49.238;6.698;2023-01-30T04:50:41;99773.84;;;-0.05;100.00
9899;BME280;4988;49.238;6.698;2023-01-30T04:53:06;99764.28;;;-0.05;100.00
9899;BME280;4988;49.238;6.698;2023-01-30T04:55:32;99768.63;;;-0.07;100.00
9899;BME280;4988;49.238;6.698;2023-01-30T04:57:57;99774.72;;;-0.08;100.00
9899;BME280;4988;49.238;6.698;2023-01-30T05:00:23;99783.47;;;-0.06;100.00
9899;BME280;4988;49.238;6.698;2023-01-30T05:02:48;99788.69;;;-0.06;100.00
9899;BME280;4988;49.238;6.698;2023-01-30T05:05:14;99788.69;;;-0.06;100.00
9899;BME280;4988;49.238;6.698;2023-01-30T05:07:39;99786.06;;;-0.04;100.00
9899;BME280;4988;49.238;6.698;2023-01-30T05:10:05;99782.59;;;-0.05;100.00
9899;BME280;4988;49.238;6.698;2023-01-30T05:12:30;99770.38;;;-0.04;100.00
9899;BME280;4988;49.238;6.698;2023-01-30T05:14:56;99764.31;;;0.00;100.00
9899;BME280;4988;49.238;6.698;2023-01-30T05:17:21;99766.03;;;-0.02;100.00
9899;BME280;4988;49.238;6.698;2023-01-30T05:19:47;99767.78;;;-0.01;100.00
9899;BME280;4988;49.238;6.698;2023-01-30T05:22:12;99759.94;;;-0.01;100.00
9899;BME280;4988;49.238;6.698;2023-01-30T05:24:37;99749.47;;;-0.01;100.00
9899;BME280;4988;49.238;6.698;2023-01-30T05:27:03;99732.91;;;0.02;100.00
9899;BME280;4988;49.238;6.698;2023-01-30T05:29:28;99724.19;;;0.03;100.00
9899;BME280;4988;49.238;6.698;2023-01-30T05:31:53;99730.31;;;0.03;100.00
9899;BME280;4988;49.238;6.698;2023-01-30T05:34:19;99717.22;;;0.05;100.00
9899;BME280;4988;49.238;6.698;2023-01-30T05:36:44;99718.09;;;0.05;100.00
9899;BME280;4988;49.238;6.698;2023-01-30T05:39:09;99709.41;;;0.09;100.00
9899;BME280;4988;49.238;6.698;2023-01-30T05:41:35;99711.16;;;0.12;100.00
9899;BME280;4988;49.238;6.698;2023-01-30T05:44:00;99703.31;;;0.12;100.00
9899;BME280;4988;49.238;6.698;2023-01-30T05:46:25;99701.56;;;0.14;100.00
9899;BME280;4988;49.238;6.698;2023-01-30T05:48:51;99708.56;;;0.18;100.00
9899;BME280;4988;49.238;6.698;2023-01-30T05:51:18;99705.94;;;0.17;100.00
9899;BME280;4988;49.238;6.698;2023-01-30T05:53:45;99711.19;;;0.18;100.00
9899;BME280;4988;49.238;6.698;2023-01-30T05:56:10;99719.06;;;0.21;100.00
9899;BME280;4988;49.238;6.698;2023-01-30T05:58:36;99724.31;;;0.24;100.00
9899;BME280;4988;49.238;6.698;2023-01-30T06:01:03;99723.41;;;0.19;100.00
9899;BME280;4988;49.238;6.698;2023-01-30T06:03:29;99726.03;;;0.19;100.00
9899;BME280;4988;49.238;6.698;2023-01-30T06:05:54;99731.25;;;0.19;100.00
9899;BME280;4988;49.238;6.698;2023-01-30T06:08:20;99717.31;;;0.20;100.00
9899;BME280;4988;49.238;6.698;2023-01-30T06:10:45;99714.69;;;0.20;100.00
9899;BME280;4988;49.238;6.698;2023-01-30T06:13:10;99721.69;;;0.21;100.00
9899;BME280;4988;49.238;6.698;2023-01-30T06:15:36;99713.84;;;0.21;100.00
9899;BME280;4988;49.238;6.698;2023-01-30T06:18:01;99697.22;;;0.21;100.00
9899;BME280;4988;49.238;6.698;2023-01-30T06:20:27;99695.50;;;0.23;100.00
9899;BME280;4988;49.238;6.698;2023-01-30T06:22:52;99687.66;;;0.24;100.00
9899;BME280;4988;49.238;6.698;2023-01-30T06:25:17;99682.44;;;0.30;100.00
9899;BME280;4988;49.238;6.698;2023-01-30T06:27:44;99693.78;;;0.26;100.00
9899;BME280;4988;49.238;6.698;2023-01-30T06:30:10;99695.50;;;0.26;100.00
9899;BME280;4988;49.238;6.698;2023-01-30T06:32:35;99687.69;;;0.27;100.00
9899;BME280;4988;49.238;6.698;2023-01-30T06:35:01;99692.91;;;0.27;100.00
9899;BME280;4988;49.238;6.698;2023-01-30T06:37:26;99708.59;;;0.26;100.00
9899;BME280;4988;49.238;6.698;2023-01-30T06:39:51;99718.22;;;0.27;100.00
9899;BME280;4988;49.238;6.698;2023-01-30T06:42:17;99710.38;;;0.28;100.00
9899;BME280;4988;49.238;6.698;2023-01-30T06:44:42;99723.47;;;0.31;100.00
9899;BME280;4988;49.238;6.698;2023-01-30T06:47:07;99726.13;;;0.35;100.00
9899;BME280;4988;49.238;6.698;2023-01-30T06:49:32;99723.50;;;0.38;100.00
9899;BME280;4988;49.238;6.698;2023-01-30T06:51:58;99730.50;;;0.42;100.00
9899;BME280;4988;49.238;6.698;2023-01-30T06:54:23;99737.50;;;0.43;100.00
9899;BME280;4988;49.238;6.698;2023-01-30T06:56:48;99727.91;;;0.45;100.00
9899;BME280;4988;49.238;6.698;2023-01-30T06:59:13;99731.44;;;0.56;100.00
9899;BME280;4988;49.238;6.698;2023-01-30T07:01:39;99732.31;;;0.51;100.00
9899;BME280;4988;49.238;6.698;2023-01-30T07:04:04;99739.28;;;0.52;100.00
9899;BME280;4988;49.238;6.698;2023-01-30T07:06:29;99738.41;;;0.50;100.00
9899;BME280;4988;49.238;6.698;2023-01-30T07:08:55;99746.25;;;0.53;100.00
9899;BME280;4988;49.238;6.698;2023-01-30T07:11:22;99746.25;;;0.53;100.00
9899;BME280;4988;49.238;6.698;2023-01-30T07:13:48;99744.50;;;0.52;100.00
9899;BME280;4988;49.238;6.698;2023-01-30T07:16:13;99748.84;;;0.48;100.00
9899;BME280;4988;49.238;6.698;2023-01-30T07:18:38;99746.25;;;0.50;100.00
9899;BME280;4988;49.238;6.698;2023-01-30T07:21:04;99742.78;;;0.51;100.00
9899;BME280;4988;49.238;6.698;2023-01-30T07:23:29;99736.69;;;0.53;100.00
9899;BME280;4988;49.238;6.698;2023-01-30T07:25:54;99732.31;;;0.54;100.00
9899;BME280;4988;49.238;6.698;2023-01-30T07:28:20;99734.91;;;0.55;100.00
9899;BME280;4988;49.238;6.698;2023-01-30T07:30:45;99727.06;;;0.54;100.00
9899;BME280;4988;49.238;6.698;2023-01-30T07:33:10;99718.38;;;0.61;100.00
9899;BME280;4988;49.238;6.698;2023-01-30T07:35:36;99723.56;;;0.58;100.00
9899;BME280;4988;49.238;6.698;2023-01-30T07:38:03;99733.19;;;0.57;100.00
9899;BME280;4988;49.238;6.698;2023-01-30T07:40:28;99746.28;;;0.56;100.00
9899;BME280;4988;49.238;6.698;2023-01-30T07:42:59;99735.81;;;0.56;100.00
9899;BME280;4988;49.238;6.698;2023-01-30T07:45:28;99729.69;;;0.55;100.00
9899;BME280;4988;49.238;6.698;2023-01-30T07:47:54;99726.19;;;0.56;100.00
9899;BME280;4988;49.238;6.698;2023-01-30T07:50:19;99733.19;;;0.57;100.00
9899;BME280;4988;49.238;6.698;2023-01-30T07:52:45;99744.56;;;0.61;100.00
9899;BME280;4988;49.238;6.698;2023-01-30T07:55:10;99755.03;;;0.64;100.00
9899;BME280;4988;49.238;6.698;2023-01-30T07:57:35;99758.56;;;0.64;100.00
9899;BME280;4988;49.238;6.698;2023-01-30T08:00:01;99759.41;;;0.65;100.00
9899;BME280;4988;49.238;6.698;2023-01-30T08:02:27;99754.19;;;0.65;100.00
9899;BME280;4988;49.238;6.698;2023-01-30T08:04:52;99757.69;;;0.67;100.00
9899;BME280;4988;49.238;6.698;2023-01-30T08:07:17;99755.94;;;0.68;100.00
9899;BME280;4988;49.238;6.698;2023-01-30T08:09:43;99759.44;;;0.70;100.00
9899;BME280;4988;49.238;6.698;2023-01-30T08:12:08;99757.72;;;0.72;100.00
9899;BME280;4988;49.238;6.698;2023-01-30T08:14:34;99755.94;;;0.72;100.00
9899;BME280;4988;49.238;6.698;2023-01-30T08:16:59;99763.84;;;0.75;100.00
9899;BME280;4988;49.238;6.698;2023-01-30T08:19:24;99762.09;;;0.76;100.00
9899;BME280;4988;49.238;6.698;2023-01-30T08:21:50;99747.25;;;0.78;100.00
9899;BME280;4988;49.238;6.698;2023-01-30T08:24:15;99737.63;;;0.78;100.00
9899;BME280;4988;49.238;6.698;2023-01-30T08:26:40;99745.50;;;0.80;100.00
9899;BME280;4988;49.238;6.698;2023-01-30T08:29:05;99743.75;;;0.84;100.00
9899;BME280;4988;49.238;6.698;2023-01-30T08:31:31;99749.03;;;0.87;100.00
9899;BME280;4988;49.238;6.698;2023-01-30T08:33:56;99735.94;;;0.85;100.00
9899;BME280;4988;49.238;6.698;2023-01-30T08:36:21;99740.28;;;0.85;100.00
9899;BME280;4988;49.238;6.698;2023-01-30T08:38:47;99728.94;;;0.84;100.00
9899;BME280;4988;49.238;6.698;2023-01-30T08:41:12;99732.41;;;0.83;100.00
9899;BME280;4988;49.238;6.698;2023-01-30T08:43:37;99742.03;;;0.84;100.00
9899;BME280;4988;49.238;6.698;2023-01-30T08:46:03;99741.13;;;0.82;100.00
9899;BME280;4988;49.238;6.698;2023-01-30T08:48:28;99749.00;;;0.82;100.00
9899;BME280;4988;49.238;6.698;2023-01-30T08:50:54;99742.03;;;0.87;100.00
9899;BME280;4988;49.238;6.698;2023-01-30T08:53:20;99747.28;;;0.84;100.00
9899;BME280;4988;49.238;6.698;2023-01-30T08:55:51;99755.16;;;0.89;100.00
9899;BME280;4988;49.238;6.698;2023-01-30T08:58:20;99752.53;;;0.90;100.00
9899;BME280;4988;49.238;6.698;2023-01-30T09:00:46;99753.41;;;0.88;100.00
9899;BME280;4988;49.238;6.698;2023-01-30T09:03:13;99764.75;;;0.90;100.00
9899;BME280;4988;49.238;6.698;2023-01-30T09:05:38;99755.16;;;0.89;100.00
9899;BME280;4988;49.238;6.698;2023-01-30T09:08:06;99760.41;;;0.90;100.00
9899;BME280;4988;49.238;6.698;2023-01-30T09:10:31;99756.03;;;0.89;100.00
9899;BME280;4988;49.238;6.698;2023-01-30T09:12:56;99752.53;;;0.90;100.00
9899;BME280;4988;49.238;6.698;2023-01-30T09:15:22;99756.00;;;0.92;100.00
9899;BME280;4988;49.238;6.698;2023-01-30T09:17:47;99760.38;;;0.93;100.00
9899;BME280;4988;49.238;6.698;2023-01-30T09:20:13;99756.03;;;0.95;100.00
9899;BME280;4988;49.238;6.698;2023-01-30T09:22:38;99762.16;;;0.98;100.00
9899;BME280;4988;49.238;6.698;2023-01-30T09:25:04;99757.81;;;1.03;100.00
9899;BME280;4988;49.238;6.698;2023-01-30T09:27:30;99743.84;;;1.04;100.00
9899;BME280;4988;49.238;6.698;2023-01-30T09:29:55;99746.44;;;1.07;100.00
9899;BME280;4988;49.238;6.698;2023-01-30T09:32:22;99734.19;;;1.06;100.00
9899;BME280;4988;49.238;6.698;2023-01-30T09:34:47;99734.22;;;1.04;100.00
9899;BME280;4988;49.238;6.698;2023-01-30T09:37:12;99732.47;;;1.05;100.00
9899;BME280;4988;49.238;6.698;2023-01-30T09:39:38;99741.19;;;1.08;100.00
9899;BME280;4988;49.238;6.698;2023-01-30T09:48:11;99760.47;;;1.15;100.00
9899;BME280;4988;49.238;6.698;2023-01-30T09:50:53;99763.06;;;1.18;100.00
9899;BME280;4988;49.238;6.698;2023-01-30T09:55:59;99750.88;;;1.23;100.00
9899;BME280;4988;49.238;6.698;2023-01-30T09:58:32;99746.50;;;1.24;100.00
9899;BME280;4988;49.238;6.698;2023-01-30T10:01:09;99746.50;;;1.24;100.00
9899;BME280;4988;49.238;6.698;2023-01-30T10:03:53;99733.38;;;1.28;100.00
9899;BME280;4988;49.238;6.698;2023-01-30T10:06:26;99736.88;;;1.27;100.00
9899;BME280;4988;49.238;6.698;2023-01-30T10:09:02;99736.88;;;1.31;100.00
9899;BME280;4988;49.238;6.698;2023-01-30T10:14:32;99736.88;;;1.35;100.00
9899;BME280;4988;49.238;6.698;2023-01-30T10:25:52;99756.13;;;1.42;100.00
9899;BME280;4988;49.238;6.698;2023-01-30T10:28:35;99754.38;;;1.39;100.00
9899;BME280;4988;49.238;6.698;2023-01-30T10:31:09;99756.13;;;1.42;100.00
9899;BME280;4988;49.238;6.698;2023-01-30T10:33:42;99742.13;;;1.40;100.00
9899;BME280;4988;49.238;6.698;2023-01-30T10:36:24;99732.50;;;1.40;100.00
9899;BME280;4988;49.238;6.698;2023-01-30T10:38:51;99719.41;;;1.42;100.00
9899;BME280;4988;49.238;6.698;2023-01-30T10:41:53;99722.03;;;1.43;100.00
9899;BME280;4988;49.238;6.698;2023-01-30T10:44:21;99717.66;;;1.47;100.00
9899;BME280;4988;49.238;6.698;2023-01-30T10:49:40;99711.53;;;1.51;100.00
9899;BME280;4988;49.238;6.698;2023-01-30T10:55:33;99711.56;;;1.53;100.00
9899;BME280;4988;49.238;6.698;2023-01-30T11:01:04;99718.53;;;1.55;100.00
9899;BME280;4988;49.238;6.698;2023-01-30T11:03:41;99725.53;;;1.58;100.00
9899;BME280;4988;49.238;6.698;2023-01-30T11:06:16;99714.16;;;1.60;100.00
9899;BME280;4988;49.238;6.698;2023-01-30T11:08:42;99708.91;;;1.62;100.00
9899;BME280;4988;49.238;6.698;2023-01-30T11:11:25;99707.16;;;1.64;100.00
9899;BME280;4988;49.238;6.698;2023-01-30T11:14:10;99713.28;;;1.68;100.00
9899;BME280;4988;49.238;6.698;2023-01-30T11:16:43;99704.50;;;1.69;100.00
9899;BME280;4988;49.238;6.698;2023-01-30T11:19:09;99717.66;;;1.72;100.00
9899;BME280;4988;49.238;6.698;2023-01-30T11:21:35;99714.16;;;1.73;100.00
9899;BME280;4988;49.238;6.698;2023-01-30T11:24:13;99714.16;;;1.77;100.00
9899;BME280;4988;49.238;6.698;2023-01-30T11:26:38;99709.75;;;1.80;100.00
9899;BME280;4988;49.238;6.698;2023-01-30T11:31:52;99704.50;;;1.86;100.00
9899;BME280;4988;49.238;6.698;2023-01-30T11:34:20;99707.13;;;1.89;100.00
9899;BME280;4988;49.238;6.698;2023-01-30T11:36:46;99700.13;;;1.92;100.00
9899;BME280;4988;49.238;6.698;2023-01-30T11:41:57;99700.13;;;1.99;100.00
9899;BME280;4988;49.238;6.698;2023-01-30T11:44:34;99688.72;;;2.01;100.00
9899;BME280;4988;49.238;6.698;2023-01-30T11:47:22;99689.59;;;2.02;100.00
9899;BME280;4988;49.238;6.698;2023-01-30T11:49:48;99704.47;;;2.07;100.00
9899;BME280;4988;49.238;6.698;2023-01-30T11:52:33;99700.06;;;2.08;100.00
9899;BME280;4988;49.238;6.698;2023-01-30T11:55:03;99704.47;;;2.09;100.00
9899;BME280;4988;49.238;6.698;2023-01-30T11:57:43;99707.94;;;2.13;100.00
9899;BME280;4988;49.238;6.698;2023-01-30T12:02:45;99690.44;;;2.18;100.00
9899;BME280;4988;49.238;6.698;2023-01-30T12:05:29;99690.44;;;2.19;100.00
9899;BME280;4988;49.238;6.698;2023-01-30T12:10:45;99689.53;;;2.23;100.00
9899;BME280;4988;49.238;6.698;2023-01-30T12:13:22;99694.78;;;2.27;100.00
9899;BME280;4988;49.238;6.698;2023-01-30T12:15:55;99690.41;;;2.27;100.00
9899;BME280;4988;49.238;6.698;2023-01-30T12:18:30;99684.28;;;2.30;100.00
9899;BME280;4988;49.238;6.698;2023-01-30T12:23:39;99699.16;;;2.35;100.00
9899;BME280;4988;49.238;6.698;2023-01-30T12:26:19;99700.88;;;2.38;100.00
9899;BME280;4988;49.238;6.698;2023-01-30T12:29:20;99694.72;;;2.42;100.00
9899;BME280;4988;49.238;6.698;2023-01-30T12:32:04;99689.44;;;2.45;100.00
9899;BME280;4988;49.238;6.698;2023-01-30T12:34:30;99685.94;;;2.49;100.00
9899;BME280;4988;49.238;6.698;2023-01-30T12:37:21;99680.66;;;2.52;100.00
9899;BME280;4988;49.238;6.698;2023-01-30T12:42:56;99678.03;;;2.55;100.00
9899;BME280;4988;49.238;6.698;2023-01-30T12:45:33;99663.09;;;2.61;100.00
9899;BME280;4988;49.238;6.698;2023-01-30T12:53:29;99675.34;;;2.65;100.00
9899;BME280;4988;49.238;6.698;2023-01-30T12:58:40;99684.06;;;2.73;100.00
9899;BME280;4988;49.238;6.698;2023-01-30T13:03:57;99677.91;;;2.76;100.00
9899;BME280;4988;49.238;6.698;2023-01-30T13:06:56;99683.13;;;2.82;100.00
9899;BME280;4988;49.238;6.698;2023-01-30T13:23:03;99690.06;;;2.97;100.00
9899;BME280;4988;49.238;6.698;2023-01-30T13:28:30;99684.78;;;3.04;100.00
9899;BME280;4988;49.238;6.698;2023-01-30T13:30:57;99668.06;;;3.10;100.00
9899;BME280;4988;49.238;6.698;2023-01-30T13:33:29;99682.03;;;3.20;100.00
9899;BME280;4988;49.238;6.698;2023-01-30T13:36:20;99681.94;;;3.31;100.00
9899;BME280;4988;49.238;6.698;2023-01-30T13:39:04;99681.91;;;3.35;100.00
9899;BME280;4988;49.238;6.698;2023-01-30T13:41:44;99675.78;;;3.36;100.00
9899;BME280;4988;49.238;6.698;2023-01-30T13:44:19;99682.78;;;3.36;100.00
9899;BME280;4988;49.238;6.698;2023-01-30T13:46:47;99689.75;;;3.38;100.00
9899;BME280;4988;49.238;6.698;2023-01-30T13:49:22;99690.63;;;3.42;100.00
9899;BME280;4988;49.238;6.698;2023-01-30T13:51:57;99699.38;;;3.44;100.00
9899;BME280;4988;49.238;6.698;2023-01-30T13:54:42;99708.16;;;3.46;100.00
9899;BME280;4988;49.238;6.698;2023-01-30T14:00:32;99693.16;;;3.54;100.00
9899;BME280;4988;49.238;6.698;2023-01-30T14:08:37;99674.66;;;3.64;100.00
9899;BME280;4988;49.238;6.698;2023-01-30T14:11:04;99683.38;;;3.72;100.00
9899;BME280;4988;49.238;6.698;2023-01-30T14:13:51;99688.53;;;3.81;100.00
9899;BME280;4988;49.238;6.698;2023-01-30T14:16:17;99692.91;;;3.79;100.00
9899;BME280;4988;49.238;6.698;2023-01-30T14:18:43;99690.28;;;3.79;100.00
9899;BME280;4988;49.238;6.698;2023-01-30T14:21:19;99694.66;;;3.83;100.00
9899;BME280;4988;49.238;6.698;2023-01-30T14:23:58;99697.28;;;3.83;100.00
9899;BME280;4988;49.238;6.698;2023-01-30T14:34:41;99709.56;;;3.86;100.00
9899;BME280;4988;49.238;6.698;2023-01-30T14:40:00;99712.09;;;3.95;100.00
9899;BME280;4988;49.238;6.698;2023-01-30T14:42:27;99705.09;;;3.94;100.00
9899;BME280;4988;49.238;6.698;2023-01-30T14:45:14;99712.09;;;3.97;100.00
9899;BME280;4988;49.238;6.698;2023-01-30T14:47:40;99719.97;;;3.98;100.00
9899;BME280;4988;49.238;6.698;2023-01-30T14:50:27;99721.66;;;4.06;100.00
9899;BME280;4988;49.238;6.698;2023-01-30T14:52:54;99729.50;;;4.09;100.00
9899;BME280;4988;49.238;6.698;2023-01-30T14:55:23;99741.00;;;4.03;100.00
9899;BME280;4988;49.238;6.698;2023-01-30T14:57:55;99748.94;;;3.98;100.00
9899;BME280;4988;49.238;6.698;2023-01-30T15:00:26;99743.69;;;3.95;100.00
9899;BME280;4988;49.238;6.698;2023-01-30T15:02:59;99739.34;;;3.91;100.00
9899;BME280;4988;49.238;6.698;2023-01-30T15:05:59;99742.84;;;3.95;100.00
9899;BME280;4988;49.238;6.698;2023-01-30T15:08:20;99748.09;;;3.92;100.00
9899;BME280;4988;49.238;6.698;2023-01-30T15:10:51;99758.66;;;3.93;100.00
9899;BME280;4988;49.238;6.698;2023-01-30T15:13:43;99773.59;;;3.90;100.00
9899;BME280;4988;49.238;6.698;2023-01-30T15:25:02;99780.59;;;3.94;100.00
9899;BME280;4988;49.238;6.698;2023-01-30T15:32:12;99783.19;;;3.98;100.00
9899;BME280;4988;49.238;6.698;2023-01-30T15:34:48;99788.41;;;4.01;100.00
9899;BME280;4988;49.238;6.698;2023-01-30T15:37:32;99793.69;;;4.03;100.00
9899;BME280;4988;49.238;6.698;2023-01-30T15:43:17;99804.22;;;4.03;100.00
9899;BME280;4988;49.238;6.698;2023-01-30T15:51:24;99810.34;;;4.05;100.00